Conner, Montana
Current Conditions -  °F | °C
As of 2:55 AM on Saturday 29 Nov 2014 (Local Time) from KSMN Reporting Station
Broken Clouds Broken Clouds  
Wind Chill: 40°   Ceiling: 6000
Heat Index: 46°   Visibility: 10mi
Dew Point: 34°   Wind: 15mph
Humidity: 62%   Direction: 190°S
Pressure: 29.42"   Gusts: 21mph
Location:  45.94°N, 114.11°W
Report Text: KSMN 290955Z AUTO 19013G18KT 10SM BKN060 BKN075 08/01 A2942 RMK AO1
Loading
Personal Weather Stations






























Interactive Weather Map New forecast layout! Learn more

10-Day Weather Forecast

Advertisements
Track Severe Weather on mobile